createdAt,value
2022-10-09T00:01:57.830Z,74.11
2022-10-09T00:07:05.026Z,74.28
2022-10-09T00:12:12.008Z,74.43
2022-10-09T00:17:19.003Z,74.59
2022-10-09T00:22:26.024Z,74.80
2022-10-09T00:27:33.572Z,74.87
2022-10-09T00:32:41.112Z,74.91
2022-10-09T00:37:49.762Z,75.17
2022-10-09T00:43:02.057Z,75.27
2022-10-09T00:48:13.991Z,75.35
2022-10-09T00:53:24.524Z,75.51
2022-10-09T00:58:32.138Z,75.59
2022-10-09T01:03:41.091Z,75.61
2022-10-09T01:08:54.107Z,75.60
2022-10-09T01:14:07.727Z,75.62
2022-10-09T01:19:37.662Z,75.59
2022-10-09T01:24:49.899Z,75.56
2022-10-09T01:30:01.071Z,75.51
2022-10-09T01:35:10.650Z,75.44
2022-10-09T01:40:19.541Z,75.33
2022-10-09T01:45:27.262Z,75.20
2022-10-09T01:50:41.921Z,75.10
2022-10-09T01:55:56.652Z,75.06
2022-10-09T02:01:07.738Z,75.07
2022-10-09T02:06:17.557Z,75.11
2022-10-09T02:11:27.565Z,75.08
2022-10-09T02:16:40.891Z,75.05
2022-10-09T02:21:54.991Z,74.99
2022-10-09T02:27:03.624Z,74.96
2022-10-09T02:32:11.253Z,74.99
2022-10-09T02:37:18.948Z,75.02
2022-10-09T02:42:26.456Z,75.23
2022-10-09T02:47:33.446Z,75.36
2022-10-09T02:52:41.014Z,75.45
2022-10-09T02:57:48.523Z,75.49
2022-10-09T03:02:55.752Z,75.49
2022-10-09T03:08:03.009Z,75.47
2022-10-09T03:13:11.119Z,75.46
2022-10-09T03:18:18.400Z,75.45
2022-10-09T03:23:26.106Z,75.45
2022-10-09T03:28:33.659Z,75.48
2022-10-09T03:33:41.039Z,75.47
2022-10-09T03:38:48.223Z,75.44
2022-10-09T03:43:55.344Z,75.44
2022-10-09T03:49:02.834Z,75.41
2022-10-09T03:54:10.312Z,75.37
2022-10-09T03:59:17.657Z,75.28
2022-10-09T04:04:24.947Z,75.23
2022-10-09T04:09:32.112Z,75.25
2022-10-09T04:14:39.471Z,75.27
2022-10-09T04:19:46.750Z,75.29
2022-10-09T04:24:53.904Z,75.34
2022-10-09T04:30:00.971Z,75.47
2022-10-09T04:35:09.467Z,75.56
2022-10-09T04:40:16.629Z,75.68
2022-10-09T04:45:23.685Z,75.80
2022-10-09T04:50:30.778Z,75.92
2022-10-09T04:55:42.617Z,75.99
2022-10-09T05:00:49.995Z,76.02
2022-10-09T05:06:01.874Z,76.08
2022-10-09T05:11:12.116Z,76.10
2022-10-09T05:16:21.709Z,76.16
2022-10-09T05:21:30.170Z,76.17
2022-10-09T05:26:37.060Z,76.15
2022-10-09T05:31:49.169Z,76.17
2022-10-09T05:36:57.137Z,76.23
2022-10-09T05:42:04.184Z,76.33
2022-10-09T05:47:11.223Z,76.47
2022-10-09T05:52:18.343Z,76.59
2022-10-09T05:57:25.145Z,76.83
2022-10-09T06:02:32.196Z,77.12
2022-10-09T06:07:39.705Z,77.40
2022-10-09T06:12:47.177Z,77.73
2022-10-09T06:17:54.373Z,77.83
2022-10-09T06:23:01.274Z,77.97
2022-10-09T06:28:08.733Z,78.05
2022-10-09T06:33:16.155Z,78.22
2022-10-09T06:38:23.377Z,78.30
2022-10-09T06:43:30.316Z,78.42
2022-10-09T06:48:38.946Z,78.58
2022-10-09T06:53:48.749Z,78.63
2022-10-09T06:58:56.224Z,78.64
2022-10-09T07:04:07.358Z,78.75
2022-10-09T07:09:16.277Z,78.79
2022-10-09T07:14:23.457Z,78.82
2022-10-09T07:19:30.666Z,78.97
2022-10-09T07:24:37.695Z,79.11
2022-10-09T07:29:44.624Z,79.18
2022-10-09T07:34:51.602Z,79.07
2022-10-09T07:39:59.084Z,78.98
2022-10-09T07:45:06.587Z,78.89
2022-10-09T07:50:13.721Z,78.83
2022-10-09T07:55:20.876Z,78.86
2022-10-09T08:00:27.956Z,78.78
2022-10-09T08:05:35.267Z,78.67
2022-10-09T08:10:42.371Z,78.49
2022-10-09T08:15:49.807Z,78.42
2022-10-09T08:21:04.673Z,78.44
2022-10-09T08:26:19.135Z,78.48
2022-10-09T08:31:27.053Z,78.31
2022-10-09T08:36:34.675Z,78.06
2022-10-09T08:41:48.555Z,78.19
2022-10-09T08:47:04.342Z,78.07
2022-10-09T08:52:23.526Z,78.11
2022-10-09T08:57:34.511Z,78.16
2022-10-09T09:02:57.490Z,78.22
2022-10-09T09:08:15.241Z,77.90
2022-10-09T09:13:42.149Z,77.61
2022-10-09T09:19:02.852Z,77.44
2022-10-09T09:24:18.395Z,77.27
2022-10-09T09:29:28.333Z,77.09
2022-10-09T09:34:39.391Z,76.92
2022-10-09T09:45:22.281Z,76.35
2022-10-09T09:56:08.120Z,75.91
2022-10-09T10:01:25.684Z,75.58
2022-10-09T10:06:35.505Z,75.14
2022-10-09T10:11:48.417Z,74.55
2022-10-09T10:16:57.746Z,74.38
2022-10-09T10:22:08.305Z,74.34
2022-10-09T10:27:24.184Z,74.09
2022-10-09T10:32:34.670Z,73.71
2022-10-09T10:37:49.243Z,73.21
2022-10-09T10:43:08.176Z,72.90
2022-10-09T10:48:19.987Z,72.91
2022-10-09T10:53:38.879Z,73.05
2022-10-09T10:58:57.502Z,72.95
2022-10-09T11:04:23.132Z,72.68
2022-10-09T11:09:36.973Z,72.20
2022-10-09T11:14:51.095Z,71.45
2022-10-09T11:20:15.152Z,70.89
2022-10-09T11:25:31.281Z,70.51
2022-10-09T11:30:44.610Z,70.33
2022-10-09T11:35:57.789Z,69.98
2022-10-09T11:41:07.410Z,69.82
2022-10-09T11:46:23.770Z,69.27
2022-10-09T11:51:37.255Z,69.24
2022-10-09T11:56:56.897Z,69.05
2022-10-09T12:02:15.998Z,68.93
2022-10-09T12:07:34.028Z,68.67
2022-10-09T12:12:41.524Z,68.40
2022-10-09T12:17:52.471Z,67.75
2022-10-09T12:23:25.228Z,67.80
2022-10-09T12:28:36.336Z,67.62
2022-10-09T12:33:50.046Z,67.53
2022-10-09T12:38:57.729Z,66.98
2022-10-09T12:44:08.350Z,66.24
2022-10-09T12:49:21.794Z,65.79
2022-10-09T12:54:31.294Z,65.22
2022-10-09T12:59:38.512Z,64.72
2022-10-09T13:04:56.031Z,64.31
2022-10-09T13:10:09.896Z,64.27
2022-10-09T13:15:34.521Z,63.62
2022-10-09T13:20:41.882Z,63.63
2022-10-09T13:25:48.852Z,63.78
2022-10-09T13:30:56.019Z,63.86
2022-10-09T13:36:03.181Z,64.04
2022-10-09T13:41:11.499Z,64.07
2022-10-09T13:46:18.850Z,64.00
2022-10-09T13:51:26.385Z,63.80
2022-10-09T13:56:34.612Z,63.35
2022-10-09T14:01:41.784Z,63.28
2022-10-09T14:06:49.145Z,63.30
2022-10-09T14:11:56.138Z,62.91
2022-10-09T14:17:03.868Z,62.56
2022-10-09T14:22:11.777Z,62.36
2022-10-09T14:27:18.925Z,62.21
2022-10-09T14:32:26.747Z,62.10
2022-10-09T14:37:42.148Z,61.81
2022-10-09T14:42:50.014Z,61.80
2022-10-09T14:47:57.268Z,61.64
2022-10-09T14:53:04.567Z,61.40
2022-10-09T14:58:12.106Z,61.04
2022-10-09T15:03:19.124Z,60.66
2022-10-09T15:08:26.306Z,60.48
2022-10-09T15:13:35.308Z,60.38
2022-10-09T15:18:42.840Z,60.34
2022-10-09T15:23:50.258Z,60.31
2022-10-09T15:28:58.130Z,60.19
2022-10-09T15:34:06.489Z,60.26
2022-10-09T15:39:14.304Z,60.36
2022-10-09T15:44:22.667Z,60.35
2022-10-09T15:49:29.816Z,60.39
2022-10-09T15:54:36.959Z,60.25
2022-10-09T15:59:44.784Z,60.23
2022-10-09T16:04:52.437Z,59.88
2022-10-09T16:09:59.643Z,59.58
2022-10-09T16:15:07.563Z,59.40
2022-10-09T16:20:15.195Z,59.07
2022-10-09T16:25:22.377Z,58.99
2022-10-09T16:30:29.863Z,58.97
2022-10-09T16:35:37.370Z,59.30
2022-10-09T16:41:04.275Z,59.61
2022-10-09T16:46:18.862Z,59.89
2022-10-09T16:51:28.119Z,60.17
2022-10-09T16:56:36.957Z,60.30
2022-10-09T17:01:46.877Z,60.35
2022-10-09T17:06:54.200Z,60.49
2022-10-09T17:12:01.398Z,60.50
2022-10-09T17:17:10.955Z,60.49
2022-10-09T17:22:18.181Z,60.57
2022-10-09T17:27:25.392Z,60.69
2022-10-09T17:32:33.203Z,60.90
2022-10-09T17:37:40.378Z,61.14
2022-10-09T17:42:49.252Z,61.42
2022-10-09T17:47:56.477Z,61.81
2022-10-09T17:53:03.448Z,62.19
2022-10-09T17:58:10.591Z,62.41
2022-10-09T18:03:18.350Z,62.69
2022-10-09T18:08:27.024Z,62.98
2022-10-09T18:13:34.590Z,63.44
2022-10-09T18:18:41.951Z,63.84
2022-10-09T18:23:50.095Z,64.08
2022-10-09T18:28:57.380Z,64.05
2022-10-09T18:34:04.764Z,64.30
2022-10-09T18:39:14.731Z,64.69
2022-10-09T18:44:24.767Z,64.93
2022-10-09T18:49:34.056Z,64.94
2022-10-09T18:54:42.589Z,64.93
2022-10-09T18:59:51.839Z,64.97
2022-10-09T19:04:59.048Z,64.99
2022-10-09T19:10:08.031Z,65.22
2022-10-09T19:15:15.330Z,65.43
2022-10-09T19:20:22.332Z,65.55
2022-10-09T19:25:29.407Z,65.66
2022-10-09T19:30:36.207Z,65.77
2022-10-09T19:35:51.031Z,66.00
2022-10-09T19:41:04.137Z,66.31
2022-10-09T19:46:14.444Z,66.63
2022-10-09T19:51:23.214Z,66.91
2022-10-09T19:56:32.888Z,67.05
2022-10-09T20:01:40.589Z,67.08
2022-10-09T20:06:48.778Z,67.24
2022-10-09T20:11:56.289Z,67.31
2022-10-09T20:17:03.730Z,67.37
2022-10-09T20:22:10.912Z,67.63
2022-10-09T20:27:17.889Z,67.90
2022-10-09T20:32:26.048Z,68.08
2022-10-09T20:37:33.910Z,68.29
2022-10-09T20:42:40.991Z,68.44
2022-10-09T20:47:47.976Z,68.51
2022-10-09T20:52:54.890Z,68.69
2022-10-09T20:58:01.927Z,68.65
2022-10-09T21:03:12.318Z,69.02
2022-10-09T21:08:19.756Z,70.79
2022-10-09T21:13:26.730Z,71.03
2022-10-09T21:18:33.840Z,70.71
2022-10-09T21:23:41.604Z,70.24
2022-10-09T21:28:48.917Z,69.72
2022-10-09T21:33:56.616Z,69.35
2022-10-09T21:39:04.553Z,69.13
2022-10-09T21:44:11.855Z,68.61
2022-10-09T21:49:22.625Z,68.02
2022-10-09T21:54:29.903Z,67.53
2022-10-09T21:59:36.955Z,67.23
2022-10-09T22:04:43.878Z,66.88
2022-10-09T22:09:51.036Z,66.68
2022-10-09T22:14:59.093Z,66.60
2022-10-09T22:20:07.074Z,66.61
2022-10-09T22:25:14.384Z,66.43
2022-10-09T22:30:21.585Z,66.06
2022-10-09T22:35:29.018Z,66.04
2022-10-09T22:40:35.930Z,64.88
2022-10-09T22:45:43.202Z,65.71
2022-10-09T22:50:50.534Z,67.44
2022-10-09T22:55:57.640Z,67.64
2022-10-09T23:01:09.418Z,67.72
2022-10-09T23:06:18.553Z,67.29
2022-10-09T23:11:26.754Z,66.12
2022-10-09T23:16:34.603Z,66.28
2022-10-09T23:21:43.510Z,66.63
2022-10-09T23:26:53.667Z,67.21
2022-10-09T23:32:00.701Z,69.27
2022-10-09T23:37:07.795Z,69.92
2022-10-09T23:42:14.937Z,69.45
2022-10-09T23:47:22.121Z,69.15
2022-10-09T23:52:29.301Z,68.81
2022-10-09T23:57:37.416Z,68.36
